createdAt,value
2023-01-11T00:01:12.051Z,5.01
2023-01-11T00:03:40.607Z,5.02
2023-01-11T00:06:08.947Z,5.00
2023-01-11T00:08:36.785Z,5.00
2023-01-11T00:11:05.409Z,4.96
2023-01-11T00:13:33.310Z,4.94
2023-01-11T00:16:08.094Z,4.93
2023-01-11T00:18:37.077Z,4.92
2023-01-11T00:21:06.344Z,4.90
2023-01-11T00:23:34.666Z,4.91
2023-01-11T00:26:04.223Z,4.90
2023-01-11T00:28:32.308Z,4.90
2023-01-11T00:31:00.352Z,4.91
2023-01-11T00:33:29.558Z,4.90
2023-01-11T00:35:57.383Z,4.90
2023-01-11T00:38:43.322Z,4.90
2023-01-11T00:41:30.642Z,4.90
2023-01-11T00:44:15.944Z,4.90
2023-01-11T00:47:01.914Z,4.90
2023-01-11T00:49:31.562Z,4.89
2023-01-11T00:51:59.377Z,4.90
2023-01-11T00:54:27.237Z,4.92
2023-01-11T00:56:55.029Z,4.92
2023-01-11T00:59:22.943Z,4.92
2023-01-11T01:01:50.709Z,4.94
2023-01-11T01:04:18.581Z,4.97
2023-01-11T01:06:47.872Z,4.99
2023-01-11T01:09:15.798Z,5.04
2023-01-11T01:11:43.631Z,5.06
2023-01-11T01:14:26.751Z,5.10
2023-01-11T01:16:55.621Z,5.14
2023-01-11T01:19:24.335Z,5.16
2023-01-11T01:21:53.472Z,5.16
2023-01-11T01:24:21.338Z,5.17
2023-01-11T01:26:49.409Z,5.20
2023-01-11T01:29:17.496Z,5.19
2023-01-11T01:31:45.955Z,5.19
2023-01-11T01:34:14.169Z,5.18
2023-01-11T01:36:42.029Z,5.20
2023-01-11T01:39:12.952Z,5.18
2023-01-11T01:41:40.865Z,5.19
2023-01-11T01:44:42.131Z,5.21
2023-01-11T01:47:10.799Z,5.20
2023-01-11T01:49:39.527Z,5.21
2023-01-11T01:52:07.541Z,5.23
2023-01-11T01:54:41.650Z,5.24
2023-01-11T01:57:14.536Z,5.26
2023-01-11T01:59:42.768Z,5.27
2023-01-11T02:02:10.983Z,5.28
2023-01-11T02:04:41.660Z,5.28
2023-01-11T02:07:13.424Z,5.30
2023-01-11T02:09:49.735Z,5.32
2023-01-11T02:12:17.964Z,5.33
2023-01-11T02:14:47.246Z,5.33
2023-01-11T02:17:15.387Z,5.34
2023-01-11T02:19:54.607Z,5.36
2023-01-11T02:22:58.291Z,5.37
2023-01-11T02:25:53.038Z,5.37
2023-01-11T02:28:29.631Z,5.38
2023-01-11T02:31:06.566Z,5.39
2023-01-11T02:33:43.407Z,5.41
2023-01-11T02:36:21.043Z,5.42
2023-01-11T02:38:58.823Z,5.42
2023-01-11T02:41:53.493Z,5.43
2023-01-11T02:44:46.096Z,5.44
2023-01-11T02:47:19.545Z,5.44
2023-01-11T02:49:56.152Z,5.46
2023-01-11T02:52:31.367Z,5.47
2023-01-11T02:55:01.033Z,5.47
2023-01-11T02:57:30.557Z,5.50
2023-01-11T03:00:01.230Z,5.54
2023-01-11T03:02:29.168Z,5.57
2023-01-11T03:04:57.118Z,5.58
2023-01-11T03:07:40.295Z,5.60
2023-01-11T03:10:19.524Z,5.61
2023-01-11T03:12:59.588Z,5.64
2023-01-11T03:15:46.668Z,5.69
2023-01-11T03:18:28.443Z,5.75
2023-01-11T03:21:07.120Z,5.78
2023-01-11T03:23:40.050Z,5.81
2023-01-11T03:26:16.880Z,5.86
2023-01-11T03:28:54.349Z,5.91
2023-01-11T03:31:31.792Z,5.98
2023-01-11T03:34:05.589Z,6.04
2023-01-11T03:36:40.612Z,6.09
2023-01-11T03:39:14.254Z,6.12
2023-01-11T03:41:44.770Z,6.14
2023-01-11T03:44:15.295Z,6.13
2023-01-11T03:46:48.341Z,6.09
2023-01-11T03:49:21.480Z,6.05
2023-01-11T03:51:51.976Z,6.01
2023-01-11T03:54:23.786Z,5.98
2023-01-11T03:56:57.423Z,5.95
2023-01-11T03:59:26.494Z,5.92
2023-01-11T04:01:56.517Z,5.90
2023-01-11T04:04:25.055Z,5.89
2023-01-11T04:06:53.035Z,5.88
2023-01-11T04:09:21.033Z,5.87
2023-01-11T04:11:48.842Z,5.86
2023-01-11T04:14:16.633Z,5.86
2023-01-11T04:16:44.506Z,5.86
2023-01-11T04:19:13.703Z,5.86
2023-01-11T04:21:41.503Z,5.86
2023-01-11T04:24:09.410Z,5.86
2023-01-11T04:26:37.200Z,5.87
2023-01-11T04:29:05.062Z,5.88
2023-01-11T04:31:32.969Z,5.89
2023-01-11T04:34:00.765Z,5.89
2023-01-11T04:36:31.500Z,5.89
2023-01-11T04:38:59.679Z,5.93
2023-01-11T04:41:45.007Z,5.94
2023-01-11T04:44:12.981Z,5.99
2023-01-11T04:46:40.790Z,6.02
2023-01-11T04:49:08.613Z,6.05
2023-01-11T04:51:37.739Z,6.08
2023-01-11T04:54:05.912Z,6.11
2023-01-11T04:56:34.073Z,6.16
2023-01-11T04:59:01.995Z,6.19
2023-01-11T05:01:29.881Z,6.23
2023-01-11T05:03:57.957Z,6.27
2023-01-11T05:06:25.862Z,6.30
2023-01-11T05:08:55.275Z,6.30
2023-01-11T05:11:23.095Z,6.30
2023-01-11T05:13:50.948Z,6.31
2023-01-11T05:16:21.051Z,6.33
2023-01-11T05:18:50.607Z,6.34
2023-01-11T05:21:20.910Z,6.35
2023-01-11T05:23:49.161Z,6.37
2023-01-11T05:26:20.507Z,6.37
2023-01-11T05:28:48.625Z,6.39
2023-01-11T05:31:17.336Z,6.42
2023-01-11T05:33:45.667Z,6.43
2023-01-11T05:36:18.057Z,6.42
2023-01-11T05:38:46.974Z,6.40
2023-01-11T05:41:15.420Z,6.38
2023-01-11T05:44:04.812Z,6.38
2023-01-11T05:46:33.868Z,6.37
2023-01-11T05:49:01.830Z,6.38
2023-01-11T05:51:31.278Z,6.37
2023-01-11T05:53:59.649Z,6.40
2023-01-11T05:56:27.791Z,6.41
2023-01-11T05:58:57.088Z,6.43
2023-01-11T06:01:26.153Z,6.43
2023-01-11T06:03:54.020Z,6.44
2023-01-11T06:06:22.359Z,6.45
2023-01-11T06:08:50.337Z,6.50
2023-01-11T06:11:18.090Z,6.53
2023-01-11T06:13:45.990Z,6.59
2023-01-11T06:16:17.245Z,6.70
2023-01-11T06:18:47.099Z,6.77
2023-01-11T06:21:15.761Z,6.80
2023-01-11T06:23:45.408Z,6.87
2023-01-11T06:26:15.191Z,6.97
2023-01-11T06:28:43.196Z,7.04
2023-01-11T06:31:11.524Z,7.11
2023-01-11T06:33:40.700Z,7.18
2023-01-11T06:36:10.325Z,7.25
2023-01-11T06:38:39.384Z,7.33
2023-01-11T06:41:09.258Z,7.41
2023-01-11T06:43:38.477Z,7.48
2023-01-11T06:46:06.680Z,7.52
2023-01-11T06:48:34.592Z,7.54
2023-01-11T06:51:03.777Z,7.56
2023-01-11T06:53:31.541Z,7.58
2023-01-11T06:55:59.777Z,7.58
2023-01-11T06:58:28.165Z,7.60
2023-01-11T07:00:57.991Z,7.59
2023-01-11T07:03:26.545Z,7.60
2023-01-11T07:05:56.592Z,7.61
2023-01-11T07:08:26.770Z,7.58
2023-01-11T07:10:55.483Z,7.58
2023-01-11T07:13:23.550Z,7.55
2023-01-11T07:15:54.017Z,7.53
2023-01-11T07:18:22.220Z,7.52
2023-01-11T07:20:51.502Z,7.49
2023-01-11T07:23:19.377Z,7.49
2023-01-11T07:25:49.114Z,7.47
2023-01-11T07:28:17.264Z,7.48
2023-01-11T07:30:57.626Z,7.45
2023-01-11T07:33:26.747Z,7.46
2023-01-11T07:35:54.587Z,7.46
2023-01-11T07:38:22.469Z,7.45
2023-01-11T07:40:51.706Z,7.43
2023-01-11T07:43:19.890Z,7.42
2023-01-11T07:45:50.301Z,7.40
2023-01-11T07:48:24.644Z,7.39
2023-01-11T07:50:53.460Z,7.40
2023-01-11T07:53:21.390Z,7.41
2023-01-11T07:55:49.245Z,7.41
2023-01-11T07:58:18.395Z,7.41
2023-01-11T08:00:48.802Z,7.42
2023-01-11T08:03:16.703Z,7.39
2023-01-11T08:05:44.634Z,7.35
2023-01-11T08:08:12.438Z,7.31
2023-01-11T08:10:42.091Z,7.29
2023-01-11T08:13:31.123Z,7.25
2023-01-11T08:16:00.570Z,7.22
2023-01-11T08:18:28.506Z,7.21
2023-01-11T08:20:56.336Z,7.20
2023-01-11T08:23:24.159Z,7.19
2023-01-11T08:25:57.548Z,7.18
2023-01-11T08:28:25.491Z,7.18
2023-01-11T08:30:53.450Z,7.17
2023-01-11T08:33:22.671Z,7.19
2023-01-11T08:35:50.532Z,7.18
2023-01-11T08:38:18.396Z,7.19
2023-01-11T08:40:46.176Z,7.19
2023-01-11T08:43:13.981Z,7.20
2023-01-11T08:45:41.811Z,7.21
2023-01-11T08:48:09.627Z,7.23
2023-01-11T08:50:38.834Z,7.23
2023-01-11T08:53:06.661Z,7.24
2023-01-11T08:55:34.583Z,7.24
2023-01-11T08:58:02.320Z,7.26
2023-01-11T09:00:30.179Z,7.28
2023-01-11T09:03:01.155Z,7.31
2023-01-11T09:05:29.227Z,7.33
2023-01-11T09:07:58.777Z,7.35
2023-01-11T09:10:27.193Z,7.37
2023-01-11T09:12:55.274Z,7.39
2023-01-11T09:15:23.381Z,7.40
2023-01-11T09:17:51.540Z,7.43
2023-01-11T09:20:19.782Z,7.44
2023-01-11T09:22:49.746Z,7.46
2023-01-11T09:25:20.643Z,7.48
2023-01-11T09:27:49.765Z,7.49
2023-01-11T09:30:23.809Z,7.50
2023-01-11T09:32:52.909Z,7.51
2023-01-11T09:35:21.892Z,7.53
2023-01-11T09:37:50.420Z,7.53
2023-01-11T09:40:23.615Z,7.53
2023-01-11T09:42:53.687Z,7.56
2023-01-11T09:45:23.366Z,7.57
2023-01-11T09:48:00.969Z,7.57
2023-01-11T09:50:32.591Z,7.57
2023-01-11T09:53:07.878Z,7.59
2023-01-11T09:55:41.692Z,7.60
2023-01-11T09:58:46.631Z,7.60
2023-01-11T10:01:23.897Z,7.61
2023-01-11T10:04:17.923Z,7.61
2023-01-11T10:07:00.999Z,7.62
2023-01-11T10:18:25.785Z,7.64
2023-01-11T10:18:58.519Z,7.65
2023-01-11T10:21:33.167Z,7.66
2023-01-11T10:24:04.754Z,7.66
2023-01-11T10:26:40.023Z,7.67
2023-01-11T10:29:30.130Z,7.68
2023-01-11T10:32:18.641Z,7.68
2023-01-11T10:35:00.319Z,7.70
2023-01-11T10:37:49.932Z,7.72
2023-01-11T10:40:39.808Z,7.74
2023-01-11T10:43:17.052Z,7.74
2023-01-11T10:45:51.365Z,7.75
2023-01-11T10:48:25.302Z,7.76
2023-01-11T10:51:02.927Z,7.76
2023-01-11T10:53:36.686Z,7.76
2023-01-11T10:56:13.876Z,7.78
2023-01-11T10:58:54.769Z,7.76
2023-01-11T11:01:46.259Z,7.77
2023-01-11T11:04:48.177Z,7.78
2023-01-11T11:07:22.967Z,7.78
2023-01-11T11:09:56.988Z,7.79
2023-01-11T11:12:29.418Z,7.80
2023-01-11T11:15:03.945Z,7.80
2023-01-11T11:17:36.193Z,7.81
2023-01-11T11:20:14.802Z,7.81
2023-01-11T11:22:44.988Z,7.80
2023-01-11T11:25:18.295Z,7.81
2023-01-11T11:27:49.782Z,7.81
2023-01-11T11:30:32.709Z,7.82
2023-01-11T11:33:02.748Z,7.83
2023-01-11T11:35:37.380Z,7.84
2023-01-11T11:38:06.009Z,7.83
2023-01-11T11:40:36.169Z,7.83
2023-01-11T11:43:14.946Z,7.84
2023-01-11T11:45:52.584Z,7.85
2023-01-11T11:48:22.087Z,7.86
2023-01-11T11:50:51.472Z,7.87
2023-01-11T11:53:33.792Z,7.87
2023-01-11T11:56:07.647Z,7.87
2023-01-11T11:58:35.833Z,7.87
2023-01-11T12:01:08.059Z,7.87
2023-01-11T12:03:37.359Z,7.87
2023-01-11T12:06:07.419Z,7.86
2023-01-11T12:08:37.078Z,7.87
2023-01-11T12:11:07.733Z,7.89
2023-01-11T12:13:37.541Z,7.88
2023-01-11T12:16:08.050Z,7.90
2023-01-11T12:18:42.972Z,7.90
2023-01-11T12:21:21.178Z,7.91
2023-01-11T12:23:49.572Z,7.93
2023-01-11T12:26:23.693Z,7.93
2023-01-11T12:29:16.588Z,7.93
2023-01-11T12:31:54.309Z,7.93
2023-01-11T12:34:51.658Z,7.94
2023-01-11T12:37:33.018Z,7.93
2023-01-11T12:40:11.994Z,7.94
2023-01-11T12:42:55.604Z,7.94
2023-01-11T12:45:34.917Z,7.95
2023-01-11T12:48:18.826Z,7.94
2023-01-11T12:51:02.351Z,7.94
2023-01-11T12:53:43.951Z,7.93
2023-01-11T12:56:32.245Z,7.94
2023-01-11T12:59:06.081Z,7.95
2023-01-11T13:01:48.434Z,7.93
2023-01-11T13:04:36.328Z,7.94
2023-01-11T13:07:15.360Z,7.93
2023-01-11T13:09:56.579Z,7.95
2023-01-11T13:12:30.604Z,7.93
2023-01-11T13:15:09.835Z,7.93
2023-01-11T13:17:43.078Z,7.94
2023-01-11T13:20:28.835Z,7.95
2023-01-11T13:23:03.453Z,7.95
2023-01-11T13:25:35.315Z,7.95
2023-01-11T13:28:20.085Z,7.96
2023-01-11T13:30:52.494Z,7.97
2023-01-11T13:33:23.523Z,7.96
2023-01-11T13:35:57.664Z,7.98
2023-01-11T13:38:37.010Z,7.96
2023-01-11T13:41:15.878Z,7.97
2023-01-11T13:43:49.069Z,7.97
2023-01-11T13:46:22.604Z,7.97
2023-01-11T13:48:54.980Z,7.99
2023-01-11T13:51:33.995Z,7.97
2023-01-11T13:54:09.534Z,7.98
2023-01-11T13:56:42.481Z,7.98
2023-01-11T13:59:16.278Z,7.98
2023-01-11T14:01:53.828Z,8.03
2023-01-11T14:04:26.609Z,8.06
2023-01-11T14:07:08.792Z,8.04
2023-01-11T14:10:02.028Z,8.04
2023-01-11T14:12:43.991Z,8.06
2023-01-11T14:15:26.364Z,8.03
2023-01-11T14:18:22.877Z,8.06
2023-01-11T14:21:00.210Z,8.03
2023-01-11T14:23:38.900Z,8.04
2023-01-11T14:26:44.630Z,8.02
2023-01-11T14:29:31.314Z,8.01
2023-01-11T14:32:26.736Z,7.98
2023-01-11T14:35:37.042Z,7.95
2023-01-11T14:38:40.383Z,7.92
2023-01-11T14:41:21.101Z,7.87
2023-01-11T14:44:03.940Z,7.86
2023-01-11T14:46:52.896Z,7.85
2023-01-11T14:49:34.829Z,7.80
2023-01-11T14:52:08.661Z,7.79
2023-01-11T14:54:40.184Z,7.75
2023-01-11T14:57:39.782Z,7.74
2023-01-11T15:01:08.158Z,7.71
2023-01-11T15:03:48.957Z,7.71
2023-01-11T15:06:20.463Z,7.70
2023-01-11T15:08:51.252Z,7.69
2023-01-11T15:11:40.852Z,7.68
2023-01-11T15:14:24.772Z,7.71
2023-01-11T15:17:12.604Z,7.68
2023-01-11T15:19:43.847Z,7.65
2023-01-11T15:22:25.355Z,7.65
2023-01-11T15:25:00.299Z,7.62
2023-01-11T15:27:33.358Z,7.60
2023-01-11T15:30:03.231Z,7.56
2023-01-11T15:32:32.619Z,7.53
2023-01-11T15:35:19.018Z,7.50
2023-01-11T15:37:53.827Z,7.44
2023-01-11T15:40:26.250Z,7.43
2023-01-11T15:43:32.584Z,7.41
2023-01-11T15:46:52.904Z,7.38
2023-01-11T15:49:59.153Z,7.35
2023-01-11T15:53:07.446Z,7.36
2023-01-11T15:56:17.107Z,7.33
2023-01-11T15:59:17.774Z,7.23
2023-01-11T16:02:19.602Z,7.23
2023-01-11T16:04:51.111Z,7.22
2023-01-11T16:07:29.249Z,7.18
2023-01-11T16:10:17.654Z,7.16
2023-01-11T16:13:12.257Z,7.15
2023-01-11T16:15:55.256Z,7.06
2023-01-11T16:18:28.994Z,7.00
2023-01-11T16:21:01.288Z,6.96
2023-01-11T16:23:31.853Z,6.91
2023-01-11T16:26:01.128Z,6.85
2023-01-11T16:28:29.536Z,6.84
2023-01-11T16:30:59.088Z,6.83
2023-01-11T16:33:31.544Z,6.79
2023-01-11T16:36:13.356Z,6.80
2023-01-11T16:38:50.313Z,6.81
2023-01-11T16:41:18.710Z,6.83
2023-01-11T16:43:54.140Z,6.86
2023-01-11T16:47:07.521Z,6.89
2023-01-11T16:49:37.190Z,6.91
2023-01-11T16:52:36.953Z,6.91
2023-01-11T16:58:18.305Z,6.93
2023-01-11T17:00:57.532Z,6.91
2023-01-11T17:03:27.925Z,6.90
2023-01-11T17:06:00.544Z,6.89
2023-01-11T17:08:29.776Z,6.86
2023-01-11T17:11:00.223Z,6.84
2023-01-11T17:14:01.771Z,6.82
2023-01-11T17:16:33.135Z,6.77
2023-01-11T17:19:07.829Z,6.69
2023-01-11T17:21:37.467Z,6.60
2023-01-11T17:24:07.830Z,6.52
2023-01-11T17:26:43.353Z,6.46
2023-01-11T17:29:18.154Z,6.41
2023-01-11T17:31:46.180Z,6.30
2023-01-11T17:34:18.878Z,6.22
2023-01-11T17:36:49.069Z,6.13
2023-01-11T17:39:27.023Z,6.03
2023-01-11T17:42:13.247Z,5.92
2023-01-11T17:44:59.742Z,5.83
2023-01-11T17:47:28.849Z,5.78
2023-01-11T17:49:59.461Z,5.77
2023-01-11T17:52:43.753Z,5.75
2023-01-11T17:55:21.423Z,5.75
2023-01-11T17:58:20.327Z,5.77
2023-01-11T18:01:11.370Z,5.79
2023-01-11T18:03:44.388Z,5.80
2023-01-11T18:06:20.215Z,5.78
2023-01-11T18:08:52.085Z,5.74
2023-01-11T18:11:26.298Z,5.68
2023-01-11T18:13:56.307Z,5.65
2023-01-11T18:16:25.428Z,5.60
2023-01-11T18:18:54.526Z,5.55
2023-01-11T18:21:42.115Z,5.48
2023-01-11T18:24:31.148Z,5.42
2023-01-11T18:27:18.172Z,5.33
2023-01-11T18:29:51.583Z,5.27
2023-01-11T18:32:20.608Z,5.21
2023-01-11T18:34:52.256Z,5.16
2023-01-11T18:37:20.750Z,5.12
2023-01-11T18:39:51.700Z,5.09
2023-01-11T18:42:22.572Z,5.05
2023-01-11T18:44:51.268Z,5.05
2023-01-11T18:47:21.946Z,5.03
2023-01-11T18:49:50.764Z,4.99
2023-01-11T18:52:20.281Z,4.97
2023-01-11T18:54:48.426Z,4.98
2023-01-11T18:57:17.685Z,4.99
2023-01-11T18:59:45.500Z,4.98
2023-01-11T19:02:25.407Z,4.97
2023-01-11T19:04:54.223Z,4.98
2023-01-11T19:07:23.010Z,4.97
2023-01-11T19:09:51.564Z,4.95
2023-01-11T19:12:21.022Z,4.94
2023-01-11T19:14:48.823Z,4.94
2023-01-11T19:17:16.787Z,4.96
2023-01-11T19:19:44.798Z,4.97
2023-01-11T19:22:13.242Z,4.98
2023-01-11T19:24:41.474Z,5.02
2023-01-11T19:27:09.518Z,5.03
2023-01-11T19:29:38.937Z,5.04
2023-01-11T19:32:07.638Z,5.04
2023-01-11T19:34:36.137Z,5.05
2023-01-11T19:37:04.224Z,5.05
2023-01-11T19:39:32.283Z,5.05
2023-01-11T19:42:01.980Z,5.05
2023-01-11T19:44:32.093Z,5.05
2023-01-11T19:47:11.464Z,5.03
2023-01-11T19:49:41.210Z,5.03
2023-01-11T19:52:12.977Z,5.04
2023-01-11T19:54:42.313Z,5.06
2023-01-11T19:57:11.678Z,5.09
2023-01-11T19:59:39.572Z,5.09
2023-01-11T20:02:09.256Z,5.09
2023-01-11T20:04:37.444Z,5.09
2023-01-11T20:07:05.952Z,5.10
2023-01-11T20:09:34.084Z,5.12
2023-01-11T20:12:01.944Z,5.12
2023-01-11T20:14:29.867Z,5.12
2023-01-11T20:16:57.691Z,5.11
2023-01-11T20:19:27.145Z,5.09
2023-01-11T20:21:55.900Z,5.11
2023-01-11T20:24:28.279Z,5.08
2023-01-11T20:26:56.773Z,5.08
2023-01-11T20:29:24.715Z,5.08
2023-01-11T20:31:52.688Z,5.05
2023-01-11T20:34:20.686Z,5.03
2023-01-11T20:36:50.616Z,4.99
2023-01-11T20:39:18.472Z,4.99
2023-01-11T20:41:49.826Z,4.98
2023-01-11T20:44:19.845Z,4.97
2023-01-11T20:46:48.503Z,4.95
2023-01-11T20:49:17.165Z,4.93
2023-01-11T20:51:45.878Z,4.92
2023-01-11T20:54:15.737Z,4.93
2023-01-11T20:56:46.419Z,4.95
2023-01-11T20:59:16.503Z,4.94
2023-01-11T21:01:44.481Z,4.95
2023-01-11T21:04:13.580Z,4.94
2023-01-11T21:06:43.880Z,4.96
2023-01-11T21:09:14.245Z,4.98
2023-01-11T21:11:44.172Z,5.03
2023-01-11T21:14:12.924Z,5.06
2023-01-11T21:16:42.436Z,5.08
2023-01-11T21:19:12.911Z,5.10
2023-01-11T21:21:41.003Z,5.13
2023-01-11T21:24:10.085Z,5.16
2023-01-11T21:26:38.033Z,5.17
2023-01-11T21:29:07.395Z,5.20
2023-01-11T21:31:37.057Z,5.22
2023-01-11T21:34:05.490Z,5.22
2023-01-11T21:36:34.245Z,5.23
2023-01-11T21:39:03.475Z,5.22
2023-01-11T21:41:50.283Z,5.22
2023-01-11T21:44:20.915Z,5.21
2023-01-11T21:46:48.990Z,5.22
2023-01-11T21:49:17.781Z,5.21
2023-01-11T21:51:45.726Z,5.19
2023-01-11T21:54:15.592Z,5.19
2023-01-11T21:56:43.505Z,5.16
2023-01-11T21:59:11.720Z,5.17
2023-01-11T22:01:42.636Z,5.16
2023-01-11T22:04:13.106Z,5.17
2023-01-11T22:06:42.794Z,5.18
2023-01-11T22:09:12.604Z,5.20
2023-01-11T22:11:41.085Z,5.24
2023-01-11T22:14:09.088Z,5.27
2023-01-11T22:16:38.060Z,5.32
2023-01-11T22:19:08.543Z,5.33
2023-01-11T22:21:37.675Z,5.35
2023-01-11T22:24:08.414Z,5.37
2023-01-11T22:26:38.987Z,5.38
2023-01-11T22:29:15.370Z,5.38
2023-01-11T22:31:46.725Z,5.37
2023-01-11T22:34:16.983Z,5.39
2023-01-11T22:36:45.501Z,5.40
2023-01-11T22:39:14.970Z,5.42
2023-01-11T22:41:45.614Z,5.43
2023-01-11T22:44:13.622Z,5.44
2023-01-11T22:46:41.796Z,5.41
2023-01-11T22:49:09.986Z,5.44
2023-01-11T22:51:39.183Z,5.46
2023-01-11T22:54:07.109Z,5.47
2023-01-11T22:56:35.053Z,5.50
2023-01-11T22:59:03.035Z,5.54
2023-01-11T23:01:32.600Z,5.58
2023-01-11T23:06:38.273Z,5.60
2023-01-11T23:09:07.483Z,5.60
2023-01-11T23:11:55.460Z,5.60
2023-01-11T23:14:23.296Z,5.63
2023-01-11T23:16:51.211Z,5.64
2023-01-11T23:19:20.765Z,5.69
2023-01-11T23:21:50.045Z,5.74
2023-01-11T23:24:18.274Z,5.77
2023-01-11T23:26:46.226Z,5.79
2023-01-11T23:29:14.486Z,5.81
2023-01-11T23:31:43.536Z,5.86
2023-01-11T23:34:12.655Z,5.92
2023-01-11T23:36:42.256Z,5.97
2023-01-11T23:39:15.253Z,6.00
2023-01-11T23:42:00.728Z,6.02
2023-01-11T23:44:32.995Z,6.05
2023-01-11T23:47:18.276Z,6.07
2023-01-11T23:49:46.179Z,6.05
2023-01-11T23:52:13.944Z,6.05
2023-01-11T23:54:45.423Z,6.03
2023-01-11T23:57:14.423Z,6.02
2023-01-11T23:59:43.608Z,6.04
